sensor_id;sensor_type;location;lat;lon;timestamp;P1;durP1;ratioP1;P2;durP2;ratioP2
12631;SDS011;6381;45.748;12.106;2023-04-15T00:01:14;5.10;;;4.60;;
12631;SDS011;6381;45.748;12.106;2023-04-15T00:03:47;5.93;;;4.37;;
12631;SDS011;6381;45.748;12.106;2023-04-15T00:06:18;6.37;;;5.10;;
12631;SDS011;6381;45.748;12.106;2023-04-15T00:08:47;5.27;;;4.77;;
12631;SDS011;6381;45.748;12.106;2023-04-15T00:11:16;5.10;;;4.60;;
12631;SDS011;6381;45.748;12.106;2023-04-15T00:13:45;6.07;;;5.47;;
12631;SDS011;6381;45.748;12.106;2023-04-15T00:16:15;6.47;;;5.33;;
12631;SDS011;6381;45.748;12.106;2023-04-15T00:18:43;7.63;;;5.77;;
12631;SDS011;6381;45.748;12.106;2023-04-15T00:21:14;6.03;;;5.40;;
12631;SDS011;6381;45.748;12.106;2023-04-15T00:23:42;6.23;;;5.63;;
12631;SDS011;6381;45.748;12.106;2023-04-15T00:26:15;6.50;;;5.27;;
12631;SDS011;6381;45.748;12.106;2023-04-15T00:28:46;5.03;;;4.63;;
12631;SDS011;6381;45.748;12.106;2023-04-15T00:31:15;5.73;;;5.20;;
12631;SDS011;6381;45.748;12.106;2023-04-15T00:33:44;5.53;;;5.03;;
12631;SDS011;6381;45.748;12.106;2023-04-15T00:36:15;5.27;;;4.60;;
12631;SDS011;6381;45.748;12.106;2023-04-15T00:38:43;5.53;;;5.00;;
12631;SDS011;6381;45.748;12.106;2023-04-15T00:41:12;5.20;;;4.47;;
12631;SDS011;6381;45.748;12.106;2023-04-15T00:43:41;4.80;;;4.40;;
12631;SDS011;6381;45.748;12.106;2023-04-15T00:46:11;5.10;;;4.60;;
12631;SDS011;6381;45.748;12.106;2023-04-15T00:48:41;5.07;;;4.43;;
12631;SDS011;6381;45.748;12.106;2023-04-15T00:51:11;4.83;;;4.43;;
12631;SDS011;6381;45.748;12.106;2023-04-15T00:53:41;5.07;;;4.50;;
12631;SDS011;6381;45.748;12.106;2023-04-15T00:56:11;4.80;;;4.30;;
12631;SDS011;6381;45.748;12.106;2023-04-15T00:58:40;5.37;;;4.77;;
12631;SDS011;6381;45.748;12.106;2023-04-15T01:01:10;6.50;;;5.17;;
12631;SDS011;6381;45.748;12.106;2023-04-15T01:03:39;5.40;;;4.90;;
12631;SDS011;6381;45.748;12.106;2023-04-15T01:06:08;4.80;;;4.40;;
12631;SDS011;6381;45.748;12.106;2023-04-15T01:08:38;5.23;;;4.30;;
12631;SDS011;6381;45.748;12.106;2023-04-15T01:11:08;5.00;;;4.50;;
12631;SDS011;6381;45.748;12.106;2023-04-15T01:13:39;4.90;;;4.50;;
12631;SDS011;6381;45.748;12.106;2023-04-15T01:16:08;5.60;;;4.77;;
12631;SDS011;6381;45.748;12.106;2023-04-15T01:18:38;5.93;;;5.33;;
12631;SDS011;6381;45.748;12.106;2023-04-15T01:21:08;5.80;;;5.17;;
12631;SDS011;6381;45.748;12.106;2023-04-15T01:23:37;5.67;;;5.17;;
12631;SDS011;6381;45.748;12.106;2023-04-15T01:26:08;5.10;;;4.70;;
12631;SDS011;6381;45.748;12.106;2023-04-15T01:28:37;5.70;;;4.90;;
12631;SDS011;6381;45.748;12.106;2023-04-15T01:31:06;6.53;;;5.43;;
12631;SDS011;6381;45.748;12.106;2023-04-15T01:33:36;5.37;;;4.87;;
12631;SDS011;6381;45.748;12.106;2023-04-15T01:36:05;4.43;;;4.10;;
12631;SDS011;6381;45.748;12.106;2023-04-15T01:38:35;4.67;;;4.27;;
12631;SDS011;6381;45.748;12.106;2023-04-15T01:41:08;4.40;;;4.00;;
12631;SDS011;6381;45.748;12.106;2023-04-15T01:43:37;4.47;;;4.07;;
12631;SDS011;6381;45.748;12.106;2023-04-15T01:46:07;4.60;;;4.20;;
12631;SDS011;6381;45.748;12.106;2023-04-15T01:48:36;4.47;;;4.00;;
12631;SDS011;6381;45.748;12.106;2023-04-15T01:51:05;4.23;;;3.83;;
12631;SDS011;6381;45.748;12.106;2023-04-15T01:53:34;6.30;;;4.10;;
12631;SDS011;6381;45.748;12.106;2023-04-15T01:56:03;4.30;;;3.90;;
12631;SDS011;6381;45.748;12.106;2023-04-15T01:58:34;4.23;;;3.83;;
12631;SDS011;6381;45.748;12.106;2023-04-15T02:01:03;4.83;;;3.80;;
12631;SDS011;6381;45.748;12.106;2023-04-15T02:03:33;4.00;;;3.70;;
12631;SDS011;6381;45.748;12.106;2023-04-15T02:06:03;4.23;;;3.87;;
12631;SDS011;6381;45.748;12.106;2023-04-15T02:08:31;4.07;;;3.73;;
12631;SDS011;6381;45.748;12.106;2023-04-15T02:11:00;4.37;;;4.07;;
12631;SDS011;6381;45.748;12.106;2023-04-15T02:13:30;4.63;;;4.23;;
12631;SDS011;6381;45.748;12.106;2023-04-15T02:16:00;3.90;;;3.60;;
12631;SDS011;6381;45.748;12.106;2023-04-15T02:18:30;4.97;;;4.17;;
12631;SDS011;6381;45.748;12.106;2023-04-15T02:20:59;4.83;;;3.80;;
12631;SDS011;6381;45.748;12.106;2023-04-15T02:23:28;3.93;;;3.63;;
12631;SDS011;6381;45.748;12.106;2023-04-15T02:25:57;4.80;;;3.90;;
12631;SDS011;6381;45.748;12.106;2023-04-15T02:28:25;5.70;;;3.90;;
12631;SDS011;6381;45.748;12.106;2023-04-15T02:30:54;4.17;;;3.73;;
12631;SDS011;6381;45.748;12.106;2023-04-15T02:33:26;3.80;;;3.50;;
12631;SDS011;6381;45.748;12.106;2023-04-15T02:35:55;4.07;;;3.73;;
12631;SDS011;6381;45.748;12.106;2023-04-15T02:38:25;4.93;;;4.03;;
12631;SDS011;6381;45.748;12.106;2023-04-15T02:40:54;5.13;;;3.63;;
12631;SDS011;6381;45.748;12.106;2023-04-15T02:43:23;3.93;;;3.63;;
12631;SDS011;6381;45.748;12.106;2023-04-15T02:45:52;4.30;;;3.90;;
12631;SDS011;6381;45.748;12.106;2023-04-15T02:48:21;4.23;;;3.93;;
12631;SDS011;6381;45.748;12.106;2023-04-15T02:50:51;4.30;;;3.90;;
12631;SDS011;6381;45.748;12.106;2023-04-15T02:53:20;3.90;;;3.60;;
12631;SDS011;6381;45.748;12.106;2023-04-15T02:55:48;3.80;;;3.50;;
12631;SDS011;6381;45.748;12.106;2023-04-15T02:58:17;5.43;;;4.07;;
12631;SDS011;6381;45.748;12.106;2023-04-15T03:00:46;4.17;;;3.87;;
12631;SDS011;6381;45.748;12.106;2023-04-15T03:03:17;4.33;;;3.93;;
12631;SDS011;6381;45.748;12.106;2023-04-15T03:05:46;4.30;;;3.90;;
12631;SDS011;6381;45.748;12.106;2023-04-15T03:08:18;5.63;;;5.07;;
12631;SDS011;6381;45.748;12.106;2023-04-15T03:10:48;8.07;;;5.13;;
12631;SDS011;6381;45.748;12.106;2023-04-15T03:13:18;5.03;;;4.60;;
12631;SDS011;6381;45.748;12.106;2023-04-15T03:15:47;5.40;;;4.90;;
12631;SDS011;6381;45.748;12.106;2023-04-15T03:18:16;4.77;;;4.40;;
12631;SDS011;6381;45.748;12.106;2023-04-15T03:20:45;6.40;;;5.70;;
12631;SDS011;6381;45.748;12.106;2023-04-15T03:23:14;7.13;;;6.53;;
12631;SDS011;6381;45.748;12.106;2023-04-15T03:25:45;5.87;;;5.37;;
12631;SDS011;6381;45.748;12.106;2023-04-15T03:28:14;6.37;;;5.77;;
12631;SDS011;6381;45.748;12.106;2023-04-15T03:30:43;6.30;;;5.73;;
12631;SDS011;6381;45.748;12.106;2023-04-15T03:33:12;6.60;;;6.00;;
12631;SDS011;6381;45.748;12.106;2023-04-15T03:35:41;6.80;;;6.20;;
12631;SDS011;6381;45.748;12.106;2023-04-15T03:38:11;6.37;;;5.87;;
12631;SDS011;6381;45.748;12.106;2023-04-15T03:40:40;7.10;;;6.50;;
12631;SDS011;6381;45.748;12.106;2023-04-15T03:43:10;7.83;;;6.57;;
12631;SDS011;6381;45.748;12.106;2023-04-15T03:45:39;8.43;;;6.70;;
12631;SDS011;6381;45.748;12.106;2023-04-15T03:48:09;7.63;;;6.90;;
12631;SDS011;6381;45.748;12.106;2023-04-15T03:50:43;7.67;;;7.00;;
12631;SDS011;6381;45.748;12.106;2023-04-15T03:53:13;8.40;;;7.70;;
12631;SDS011;6381;45.748;12.106;2023-04-15T03:55:44;9.30;;;8.50;;
12631;SDS011;6381;45.748;12.106;2023-04-15T03:58:14;9.17;;;8.37;;
12631;SDS011;6381;45.748;12.106;2023-04-15T04:00:43;10.40;;;9.50;;
12631;SDS011;6381;45.748;12.106;2023-04-15T04:03:12;9.97;;;9.07;;
12631;SDS011;6381;45.748;12.106;2023-04-15T04:05:41;10.60;;;9.60;;
12631;SDS011;6381;45.748;12.106;2023-04-15T04:08:10;10.13;;;9.23;;
12631;SDS011;6381;45.748;12.106;2023-04-15T04:10:41;11.50;;;10.37;;
12631;SDS011;6381;45.748;12.106;2023-04-15T04:13:10;11.80;;;10.70;;
12631;SDS011;6381;45.748;12.106;2023-04-15T04:15:40;11.13;;;10.03;;
12631;SDS011;6381;45.748;12.106;2023-04-15T04:18:10;11.20;;;10.03;;
12631;SDS011;6381;45.748;12.106;2023-04-15T04:20:39;11.30;;;10.10;;
12631;SDS011;6381;45.748;12.106;2023-04-15T04:23:08;11.07;;;10.03;;
12631;SDS011;6381;45.748;12.106;2023-04-15T04:25:37;10.97;;;9.97;;
12631;SDS011;6381;45.748;12.106;2023-04-15T04:28:07;11.03;;;10.03;;
12631;SDS011;6381;45.748;12.106;2023-04-15T04:30:37;11.27;;;10.27;;
12631;SDS011;6381;45.748;12.106;2023-04-15T04:33:07;12.00;;;10.90;;
12631;SDS011;6381;45.748;12.106;2023-04-15T04:35:36;12.40;;;11.20;;
12631;SDS011;6381;45.748;12.106;2023-04-15T04:38:05;11.60;;;10.60;;
12631;SDS011;6381;45.748;12.106;2023-04-15T04:40:34;12.57;;;11.47;;
12631;SDS011;6381;45.748;12.106;2023-04-15T04:43:03;12.40;;;11.30;;
12631;SDS011;6381;45.748;12.106;2023-04-15T04:45:32;12.83;;;11.63;;
12631;SDS011;6381;45.748;12.106;2023-04-15T04:48:01;13.33;;;12.07;;
12631;SDS011;6381;45.748;12.106;2023-04-15T04:50:34;12.97;;;11.77;;
12631;SDS011;6381;45.748;12.106;2023-04-15T04:53:03;14.43;;;13.00;;
12631;SDS011;6381;45.748;12.106;2023-04-15T04:55:33;13.73;;;12.53;;
12631;SDS011;6381;45.748;12.106;2023-04-15T04:58:03;13.93;;;12.63;;
12631;SDS011;6381;45.748;12.106;2023-04-15T05:00:31;14.30;;;12.83;;
12631;SDS011;6381;45.748;12.106;2023-04-15T05:03:00;14.33;;;12.93;;
12631;SDS011;6381;45.748;12.106;2023-04-15T05:05:29;14.20;;;12.90;;
12631;SDS011;6381;45.748;12.106;2023-04-15T05:07:59;14.07;;;12.77;;
12631;SDS011;6381;45.748;12.106;2023-04-15T05:10:28;14.10;;;12.80;;
12631;SDS011;6381;45.748;12.106;2023-04-15T05:12:57;14.47;;;13.07;;
12631;SDS011;6381;45.748;12.106;2023-04-15T05:15:26;14.07;;;12.77;;
12631;SDS011;6381;45.748;12.106;2023-04-15T05:17:54;14.27;;;12.73;;
12631;SDS011;6381;45.748;12.106;2023-04-15T05:20:23;13.40;;;12.20;;
12631;SDS011;6381;45.748;12.106;2023-04-15T05:22:52;13.50;;;12.27;;
12631;SDS011;6381;45.748;12.106;2023-04-15T05:25:22;13.10;;;11.90;;
12631;SDS011;6381;45.748;12.106;2023-04-15T05:27:51;13.40;;;12.03;;
12631;SDS011;6381;45.748;12.106;2023-04-15T05:30:20;22.10;;;17.73;;
12631;SDS011;6381;45.748;12.106;2023-04-15T05:32:49;16.77;;;14.10;;
12631;SDS011;6381;45.748;12.106;2023-04-15T05:35:18;14.23;;;12.73;;
12631;SDS011;6381;45.748;12.106;2023-04-15T05:37:46;13.23;;;11.93;;
12631;SDS011;6381;45.748;12.106;2023-04-15T05:40:15;13.17;;;11.03;;
12631;SDS011;6381;45.748;12.106;2023-04-15T05:42:45;12.93;;;11.63;;
12631;SDS011;6381;45.748;12.106;2023-04-15T05:45:14;14.60;;;13.20;;
12631;SDS011;6381;45.748;12.106;2023-04-15T05:47:43;18.93;;;13.00;;
12631;SDS011;6381;45.748;12.106;2023-04-15T05:50:12;12.93;;;11.60;;
12631;SDS011;6381;45.748;12.106;2023-04-15T05:52:41;12.53;;;11.20;;
12631;SDS011;6381;45.748;12.106;2023-04-15T05:55:11;11.97;;;10.87;;
12631;SDS011;6381;45.748;12.106;2023-04-15T05:57:40;12.37;;;11.17;;
12631;SDS011;6381;45.748;12.106;2023-04-15T06:00:11;11.33;;;10.23;;
12631;SDS011;6381;45.748;12.106;2023-04-15T06:02:41;12.77;;;10.80;;
12631;SDS011;6381;45.748;12.106;2023-04-15T06:05:10;10.97;;;9.97;;
12631;SDS011;6381;45.748;12.106;2023-04-15T06:07:39;10.93;;;10.00;;
12631;SDS011;6381;45.748;12.106;2023-04-15T06:10:10;11.07;;;9.90;;
12631;SDS011;6381;45.748;12.106;2023-04-15T06:12:39;10.60;;;9.57;;
12631;SDS011;6381;45.748;12.106;2023-04-15T06:15:08;10.40;;;9.30;;
12631;SDS011;6381;45.748;12.106;2023-04-15T06:17:39;10.07;;;9.03;;
12631;SDS011;6381;45.748;12.106;2023-04-15T06:20:08;12.47;;;9.10;;
12631;SDS011;6381;45.748;12.106;2023-04-15T06:22:37;11.27;;;9.37;;
12631;SDS011;6381;45.748;12.106;2023-04-15T06:25:06;10.60;;;9.53;;
12631;SDS011;6381;45.748;12.106;2023-04-15T06:27:36;10.83;;;8.97;;
12631;SDS011;6381;45.748;12.106;2023-04-15T06:30:05;9.43;;;8.40;;
12631;SDS011;6381;45.748;12.106;2023-04-15T06:32:35;9.73;;;8.73;;
12631;SDS011;6381;45.748;12.106;2023-04-15T06:35:05;9.57;;;8.53;;
12631;SDS011;6381;45.748;12.106;2023-04-15T06:37:34;8.70;;;7.87;;
12631;SDS011;6381;45.748;12.106;2023-04-15T06:40:03;10.07;;;8.23;;
12631;SDS011;6381;45.748;12.106;2023-04-15T06:42:34;7.90;;;7.10;;
12631;SDS011;6381;45.748;12.106;2023-04-15T06:45:04;8.40;;;7.47;;
12631;SDS011;6381;45.748;12.106;2023-04-15T06:47:34;8.37;;;7.00;;
12631;SDS011;6381;45.748;12.106;2023-04-15T06:50:05;7.67;;;6.83;;
12631;SDS011;6381;45.748;12.106;2023-04-15T06:52:35;9.07;;;8.20;;
12631;SDS011;6381;45.748;12.106;2023-04-15T06:55:04;7.93;;;7.23;;
12631;SDS011;6381;45.748;12.106;2023-04-15T06:57:33;8.20;;;6.80;;
12631;SDS011;6381;45.748;12.106;2023-04-15T07:00:02;9.63;;;7.50;;
12631;SDS011;6381;45.748;12.106;2023-04-15T07:02:33;7.60;;;6.90;;
12631;SDS011;6381;45.748;12.106;2023-04-15T07:05:02;8.33;;;7.40;;
12631;SDS011;6381;45.748;12.106;2023-04-15T07:07:32;7.17;;;6.47;;
12631;SDS011;6381;45.748;12.106;2023-04-15T07:10:01;7.70;;;6.73;;
12631;SDS011;6381;45.748;12.106;2023-04-15T07:12:31;7.33;;;6.53;;
12631;SDS011;6381;45.748;12.106;2023-04-15T07:15:00;9.27;;;6.83;;
12631;SDS011;6381;45.748;12.106;2023-04-15T07:17:29;7.20;;;6.27;;
12631;SDS011;6381;45.748;12.106;2023-04-15T07:19:58;8.53;;;7.27;;
12631;SDS011;6381;45.748;12.106;2023-04-15T07:22:27;7.50;;;6.73;;
12631;SDS011;6381;45.748;12.106;2023-04-15T07:24:57;8.37;;;6.77;;
12631;SDS011;6381;45.748;12.106;2023-04-15T07:27:26;7.17;;;6.53;;
12631;SDS011;6381;45.748;12.106;2023-04-15T07:29:54;7.43;;;6.57;;
12631;SDS011;6381;45.748;12.106;2023-04-15T07:32:23;7.67;;;6.10;;
12631;SDS011;6381;45.748;12.106;2023-04-15T07:34:52;6.97;;;6.27;;
12631;SDS011;6381;45.748;12.106;2023-04-15T07:37:21;6.40;;;5.03;;
12631;SDS011;6381;45.748;12.106;2023-04-15T07:39:50;6.50;;;4.77;;
12631;SDS011;6381;45.748;12.106;2023-04-15T07:42:20;7.60;;;5.50;;
12631;SDS011;6381;45.748;12.106;2023-04-15T07:44:50;7.13;;;5.60;;
12631;SDS011;6381;45.748;12.106;2023-04-15T07:47:20;8.20;;;5.43;;
12631;SDS011;6381;45.748;12.106;2023-04-15T07:49:49;7.10;;;5.43;;
12631;SDS011;6381;45.748;12.106;2023-04-15T07:52:18;6.40;;;5.33;;
12631;SDS011;6381;45.748;12.106;2023-04-15T07:54:46;5.47;;;4.43;;
12631;SDS011;6381;45.748;12.106;2023-04-15T07:57:15;5.13;;;4.10;;
12631;SDS011;6381;45.748;12.106;2023-04-15T07:59:45;6.10;;;4.90;;
12631;SDS011;6381;45.748;12.106;2023-04-15T08:02:14;5.90;;;3.33;;
12631;SDS011;6381;45.748;12.106;2023-04-15T08:04:44;4.50;;;3.60;;
12631;SDS011;6381;45.748;12.106;2023-04-15T08:07:13;7.70;;;3.87;;
12631;SDS011;6381;45.748;12.106;2023-04-15T08:09:42;5.87;;;4.83;;
12631;SDS011;6381;45.748;12.106;2023-04-15T08:12:12;6.27;;;4.47;;
12631;SDS011;6381;45.748;12.106;2023-04-15T08:14:41;5.27;;;4.30;;
12631;SDS011;6381;45.748;12.106;2023-04-15T08:17:11;4.40;;;3.50;;
12631;SDS011;6381;45.748;12.106;2023-04-15T08:19:40;4.97;;;3.63;;
12631;SDS011;6381;45.748;12.106;2023-04-15T08:22:09;6.40;;;3.83;;
12631;SDS011;6381;45.748;12.106;2023-04-15T08:24:44;5.10;;;4.27;;
12631;SDS011;6381;45.748;12.106;2023-04-15T08:27:12;6.13;;;3.73;;
12631;SDS011;6381;45.748;12.106;2023-04-15T08:29:41;5.20;;;4.70;;
12631;SDS011;6381;45.748;12.106;2023-04-15T08:32:12;5.53;;;3.90;;
12631;SDS011;6381;45.748;12.106;2023-04-15T08:34:41;4.30;;;3.50;;
12631;SDS011;6381;45.748;12.106;2023-04-15T08:37:10;4.47;;;3.47;;
12631;SDS011;6381;45.748;12.106;2023-04-15T08:39:39;5.10;;;3.73;;
12631;SDS011;6381;45.748;12.106;2023-04-15T08:42:10;4.47;;;3.77;;
12631;SDS011;6381;45.748;12.106;2023-04-15T08:44:43;4.57;;;3.80;;
12631;SDS011;6381;45.748;12.106;2023-04-15T08:47:14;6.80;;;3.70;;
12631;SDS011;6381;45.748;12.106;2023-04-15T08:49:48;4.43;;;3.47;;
12631;SDS011;6381;45.748;12.106;2023-04-15T08:52:19;6.33;;;3.60;;
12631;SDS011;6381;45.748;12.106;2023-04-15T08:54:48;6.07;;;3.53;;
12631;SDS011;6381;45.748;12.106;2023-04-15T08:57:18;9.13;;;3.50;;
12631;SDS011;6381;45.748;12.106;2023-04-15T08:59:47;6.90;;;3.80;;
12631;SDS011;6381;45.748;12.106;2023-04-15T09:02:18;5.30;;;4.00;;
12631;SDS011;6381;45.748;12.106;2023-04-15T09:04:48;4.20;;;3.80;;
12631;SDS011;6381;45.748;12.106;2023-04-15T09:07:16;4.30;;;3.60;;
12631;SDS011;6381;45.748;12.106;2023-04-15T09:09:45;4.87;;;3.70;;
12631;SDS011;6381;45.748;12.106;2023-04-15T09:12:15;5.90;;;4.07;;
12631;SDS011;6381;45.748;12.106;2023-04-15T09:14:44;4.63;;;3.90;;
12631;SDS011;6381;45.748;12.106;2023-04-15T09:17:14;5.60;;;3.73;;
12631;SDS011;6381;45.748;12.106;2023-04-15T09:19:47;6.97;;;4.03;;
12631;SDS011;6381;45.748;12.106;2023-04-15T09:22:16;6.87;;;3.87;;
12631;SDS011;6381;45.748;12.106;2023-04-15T09:24:48;5.73;;;3.80;;
12631;SDS011;6381;45.748;12.106;2023-04-15T09:27:17;5.57;;;3.90;;
12631;SDS011;6381;45.748;12.106;2023-04-15T09:29:48;6.10;;;3.80;;
12631;SDS011;6381;45.748;12.106;2023-04-15T09:32:19;5.70;;;4.07;;
12631;SDS011;6381;45.748;12.106;2023-04-15T09:34:50;6.00;;;4.17;;
12631;SDS011;6381;45.748;12.106;2023-04-15T09:37:20;5.47;;;4.10;;
12631;SDS011;6381;45.748;12.106;2023-04-15T09:40:03;6.43;;;3.67;;
12631;SDS011;6381;45.748;12.106;2023-04-15T09:42:32;6.20;;;3.70;;
12631;SDS011;6381;45.748;12.106;2023-04-15T09:45:07;5.87;;;3.50;;
12631;SDS011;6381;45.748;12.106;2023-04-15T09:47:39;8.10;;;3.58;;
12631;SDS011;6381;45.748;12.106;2023-04-15T09:50:08;4.13;;;3.63;;
12631;SDS011;6381;45.748;12.106;2023-04-15T09:52:40;6.72;;;4.78;;
12631;SDS011;6381;45.748;12.106;2023-04-15T09:55:10;4.68;;;3.80;;
12631;SDS011;6381;45.748;12.106;2023-04-15T09:57:39;5.80;;;3.88;;
12631;SDS011;6381;45.748;12.106;2023-04-15T10:00:10;5.55;;;3.33;;
12631;SDS011;6381;45.748;12.106;2023-04-15T10:02:41;8.20;;;3.53;;
12631;SDS011;6381;45.748;12.106;2023-04-15T10:05:10;5.13;;;3.47;;
12631;SDS011;6381;45.748;12.106;2023-04-15T10:07:42;6.43;;;3.90;;
12631;SDS011;6381;45.748;12.106;2023-04-15T10:10:12;5.28;;;4.07;;
12631;SDS011;6381;45.748;12.106;2023-04-15T10:12:42;6.05;;;3.65;;
12631;SDS011;6381;45.748;12.106;2023-04-15T10:15:13;6.40;;;3.42;;
12631;SDS011;6381;45.748;12.106;2023-04-15T10:17:45;5.75;;;3.67;;
12631;SDS011;6381;45.748;12.106;2023-04-15T10:20:17;6.72;;;3.67;;
12631;SDS011;6381;45.748;12.106;2023-04-15T10:22:47;4.85;;;3.45;;
12631;SDS011;6381;45.748;12.106;2023-04-15T10:25:18;4.53;;;3.40;;
12631;SDS011;6381;45.748;12.106;2023-04-15T10:27:47;5.18;;;4.35;;
12631;SDS011;6381;45.748;12.106;2023-04-15T10:30:18;5.72;;;3.50;;
12631;SDS011;6381;45.748;12.106;2023-04-15T10:32:49;5.57;;;3.50;;
12631;SDS011;6381;45.748;12.106;2023-04-15T10:35:19;5.40;;;4.22;;
12631;SDS011;6381;45.748;12.106;2023-04-15T10:37:49;4.03;;;3.25;;
12631;SDS011;6381;45.748;12.106;2023-04-15T10:40:24;4.28;;;3.00;;
12631;SDS011;6381;45.748;12.106;2023-04-15T10:42:55;3.97;;;3.20;;
12631;SDS011;6381;45.748;12.106;2023-04-15T10:45:25;6.32;;;3.70;;
12631;SDS011;6381;45.748;12.106;2023-04-15T10:47:56;7.60;;;3.75;;
12631;SDS011;6381;45.748;12.106;2023-04-15T10:50:29;4.22;;;3.00;;
12631;SDS011;6381;45.748;12.106;2023-04-15T10:53:01;4.25;;;3.08;;
12631;SDS011;6381;45.748;12.106;2023-04-15T10:55:31;5.45;;;3.00;;
12631;SDS011;6381;45.748;12.106;2023-04-15T10:58:01;4.55;;;3.10;;
12631;SDS011;6381;45.748;12.106;2023-04-15T11:00:31;5.65;;;3.20;;
12631;SDS011;6381;45.748;12.106;2023-04-15T11:03:05;6.00;;;3.28;;
12631;SDS011;6381;45.748;12.106;2023-04-15T11:14:31;5.28;;;2.97;;
12631;SDS011;6381;45.748;12.106;2023-04-15T11:17:01;4.45;;;3.10;;
12631;SDS011;6381;45.748;12.106;2023-04-15T11:19:38;5.25;;;3.05;;
12631;SDS011;6381;45.748;12.106;2023-04-15T11:22:07;4.78;;;3.10;;
12631;SDS011;6381;45.748;12.106;2023-04-15T11:24:45;4.35;;;2.97;;
12631;SDS011;6381;45.748;12.106;2023-04-15T11:27:20;5.50;;;3.63;;
12631;SDS011;6381;45.748;12.106;2023-04-15T11:29:49;6.53;;;3.15;;
12631;SDS011;6381;45.748;12.106;2023-04-15T11:32:18;3.67;;;3.00;;
12631;SDS011;6381;45.748;12.106;2023-04-15T11:34:52;4.18;;;3.00;;
12631;SDS011;6381;45.748;12.106;2023-04-15T11:37:26;5.88;;;2.88;;
12631;SDS011;6381;45.748;12.106;2023-04-15T11:39:56;4.72;;;3.28;;
12631;SDS011;6381;45.748;12.106;2023-04-15T11:42:24;5.07;;;2.80;;
12631;SDS011;6381;45.748;12.106;2023-04-15T11:45:09;4.03;;;2.83;;
12631;SDS011;6381;45.748;12.106;2023-04-15T11:47:38;3.53;;;2.67;;
12631;SDS011;6381;45.748;12.106;2023-04-15T11:50:19;5.82;;;3.00;;
12631;SDS011;6381;45.748;12.106;2023-04-15T11:52:52;2.85;;;2.50;;
12631;SDS011;6381;45.748;12.106;2023-04-15T11:55:21;3.50;;;2.70;;
12631;SDS011;6381;45.748;12.106;2023-04-15T11:58:04;3.80;;;2.47;;
12631;SDS011;6381;45.748;12.106;2023-04-15T12:00:35;2.55;;;2.13;;
12631;SDS011;6381;45.748;12.106;2023-04-15T12:03:21;4.60;;;2.40;;
12631;SDS011;6381;45.748;12.106;2023-04-15T12:06:06;3.42;;;2.67;;
12631;SDS011;6381;45.748;12.106;2023-04-15T12:11:41;3.78;;;2.55;;
12631;SDS011;6381;45.748;12.106;2023-04-15T12:14:23;3.03;;;2.72;;
12631;SDS011;6381;45.748;12.106;2023-04-15T12:16:54;4.43;;;2.00;;
12631;SDS011;6381;45.748;12.106;2023-04-15T12:19:27;2.53;;;1.88;;
12631;SDS011;6381;45.748;12.106;2023-04-15T12:22:00;2.65;;;1.95;;
12631;SDS011;6381;45.748;12.106;2023-04-15T12:24:30;4.25;;;2.15;;
12631;SDS011;6381;45.748;12.106;2023-04-15T12:27:03;3.78;;;1.75;;
12631;SDS011;6381;45.748;12.106;2023-04-15T12:29:33;2.28;;;1.80;;
12631;SDS011;6381;45.748;12.106;2023-04-15T12:32:04;2.83;;;2.05;;
12631;SDS011;6381;45.748;12.106;2023-04-15T12:34:35;4.60;;;2.25;;
12631;SDS011;6381;45.748;12.106;2023-04-15T12:37:06;2.78;;;1.63;;
12631;SDS011;6381;45.748;12.106;2023-04-15T12:39:37;3.10;;;1.80;;
12631;SDS011;6381;45.748;12.106;2023-04-15T12:42:07;2.10;;;1.63;;
12631;SDS011;6381;45.748;12.106;2023-04-15T12:44:37;4.07;;;1.98;;
12631;SDS011;6381;45.748;12.106;2023-04-15T12:47:06;4.25;;;2.30;;
12631;SDS011;6381;45.748;12.106;2023-04-15T12:49:36;3.15;;;1.92;;
12631;SDS011;6381;45.748;12.106;2023-04-15T12:52:08;2.97;;;1.90;;
12631;SDS011;6381;45.748;12.106;2023-04-15T12:54:37;2.50;;;1.92;;
12631;SDS011;6381;45.748;12.106;2023-04-15T12:57:07;4.07;;;1.92;;
12631;SDS011;6381;45.748;12.106;2023-04-15T12:59:36;2.38;;;1.80;;
12631;SDS011;6381;45.748;12.106;2023-04-15T13:02:05;4.88;;;1.90;;
12631;SDS011;6381;45.748;12.106;2023-04-15T13:04:35;2.17;;;1.90;;
12631;SDS011;6381;45.748;12.106;2023-04-15T13:07:04;5.55;;;2.60;;
12631;SDS011;6381;45.748;12.106;2023-04-15T13:09:34;5.18;;;2.67;;
12631;SDS011;6381;45.748;12.106;2023-04-15T13:12:03;3.55;;;2.08;;
12631;SDS011;6381;45.748;12.106;2023-04-15T13:14:32;3.30;;;2.10;;
12631;SDS011;6381;45.748;12.106;2023-04-15T13:17:01;5.35;;;1.98;;
12631;SDS011;6381;45.748;12.106;2023-04-15T13:19:35;4.22;;;2.00;;
12631;SDS011;6381;45.748;12.106;2023-04-15T13:22:06;4.60;;;2.20;;
12631;SDS011;6381;45.748;12.106;2023-04-15T13:24:37;3.10;;;2.10;;
12631;SDS011;6381;45.748;12.106;2023-04-15T13:27:06;2.55;;;2.10;;
12631;SDS011;6381;45.748;12.106;2023-04-15T13:29:35;3.90;;;2.00;;
12631;SDS011;6381;45.748;12.106;2023-04-15T13:32:04;5.60;;;2.42;;
12631;SDS011;6381;45.748;12.106;2023-04-15T13:34:33;3.15;;;2.17;;
12631;SDS011;6381;45.748;12.106;2023-04-15T13:37:05;3.13;;;2.00;;
12631;SDS011;6381;45.748;12.106;2023-04-15T13:39:34;5.18;;;1.98;;
12631;SDS011;6381;45.748;12.106;2023-04-15T13:42:05;5.63;;;2.25;;
12631;SDS011;6381;45.748;12.106;2023-04-15T13:44:34;4.18;;;2.10;;
12631;SDS011;6381;45.748;12.106;2023-04-15T13:47:02;4.00;;;2.35;;
12631;SDS011;6381;45.748;12.106;2023-04-15T13:49:32;4.60;;;2.50;;
12631;SDS011;6381;45.748;12.106;2023-04-15T13:52:01;2.85;;;1.90;;
12631;SDS011;6381;45.748;12.106;2023-04-15T13:54:29;2.72;;;1.80;;
12631;SDS011;6381;45.748;12.106;2023-04-15T13:57:05;2.40;;;1.90;;
12631;SDS011;6381;45.748;12.106;2023-04-15T13:59:34;2.50;;;1.98;;
12631;SDS011;6381;45.748;12.106;2023-04-15T14:02:02;3.05;;;2.00;;
12631;SDS011;6381;45.748;12.106;2023-04-15T14:04:34;3.83;;;2.22;;
12631;SDS011;6381;45.748;12.106;2023-04-15T14:07:03;3.15;;;1.42;;
12631;SDS011;6381;45.748;12.106;2023-04-15T14:09:32;3.00;;;1.67;;
12631;SDS011;6381;45.748;12.106;2023-04-15T14:12:02;3.42;;;1.67;;
12631;SDS011;6381;45.748;12.106;2023-04-15T14:14:33;5.75;;;2.15;;
12631;SDS011;6381;45.748;12.106;2023-04-15T14:17:02;5.03;;;2.05;;
12631;SDS011;6381;45.748;12.106;2023-04-15T14:19:32;3.72;;;2.20;;
12631;SDS011;6381;45.748;12.106;2023-04-15T14:22:02;3.38;;;1.95;;
12631;SDS011;6381;45.748;12.106;2023-04-15T14:24:30;4.82;;;2.15;;
12631;SDS011;6381;45.748;12.106;2023-04-15T14:26:59;4.00;;;2.20;;
12631;SDS011;6381;45.748;12.106;2023-04-15T14:29:28;5.97;;;3.03;;
12631;SDS011;6381;45.748;12.106;2023-04-15T14:31:58;4.82;;;2.10;;
12631;SDS011;6381;45.748;12.106;2023-04-15T14:34:38;4.18;;;2.50;;
12631;SDS011;6381;45.748;12.106;2023-04-15T14:37:06;5.50;;;2.30;;
12631;SDS011;6381;45.748;12.106;2023-04-15T14:39:37;5.70;;;2.50;;
12631;SDS011;6381;45.748;12.106;2023-04-15T14:42:06;5.60;;;2.55;;
12631;SDS011;6381;45.748;12.106;2023-04-15T14:44:35;6.57;;;2.70;;
12631;SDS011;6381;45.748;12.106;2023-04-15T14:47:05;6.10;;;4.30;;
12631;SDS011;6381;45.748;12.106;2023-04-15T14:49:34;6.57;;;2.85;;
12631;SDS011;6381;45.748;12.106;2023-04-15T14:52:03;7.35;;;3.60;;
12631;SDS011;6381;45.748;12.106;2023-04-15T14:54:33;8.18;;;4.80;;
12631;SDS011;6381;45.748;12.106;2023-04-15T14:57:02;8.20;;;3.88;;
12631;SDS011;6381;45.748;12.106;2023-04-15T14:59:31;6.55;;;3.42;;
12631;SDS011;6381;45.748;12.106;2023-04-15T15:02:00;5.35;;;2.40;;
12631;SDS011;6381;45.748;12.106;2023-04-15T15:04:31;5.20;;;2.40;;
12631;SDS011;6381;45.748;12.106;2023-04-15T15:07:00;4.40;;;2.63;;
12631;SDS011;6381;45.748;12.106;2023-04-15T15:09:28;6.72;;;3.10;;
12631;SDS011;6381;45.748;12.106;2023-04-15T15:12:00;4.15;;;2.40;;